sensor_id;sensor_type;location;lat;lon;timestamp;P1;durP1;ratioP1;P2;durP2;ratioP2
40290;SDS011;26000;48.304;13.626;2022-10-31T00:01:58;16.88;;;9.43;;
40290;SDS011;26000;48.304;13.626;2022-10-31T00:04:23;15.18;;;9.98;;
40290;SDS011;26000;48.304;13.626;2022-10-31T00:06:49;20.95;;;10.93;;
40290;SDS011;26000;48.304;13.626;2022-10-31T00:09:14;22.70;;;10.35;;
40290;SDS011;26000;48.304;13.626;2022-10-31T00:11:40;17.45;;;9.73;;
40290;SDS011;26000;48.304;13.626;2022-10-31T00:14:05;17.38;;;9.77;;
40290;SDS011;26000;48.304;13.626;2022-10-31T00:16:31;18.88;;;9.90;;
40290;SDS011;26000;48.304;13.626;2022-10-31T00:18:58;14.70;;;9.68;;
40290;SDS011;26000;48.304;13.626;2022-10-31T00:21:25;19.67;;;10.52;;
40290;SDS011;26000;48.304;13.626;2022-10-31T00:23:51;14.43;;;10.05;;
40290;SDS011;26000;48.304;13.626;2022-10-31T00:26:16;18.85;;;11.25;;
40290;SDS011;26000;48.304;13.626;2022-10-31T00:28:42;20.58;;;11.15;;
40290;SDS011;26000;48.304;13.626;2022-10-31T00:31:09;28.33;;;13.45;;
40290;SDS011;26000;48.304;13.626;2022-10-31T00:33:36;29.05;;;13.55;;
40290;SDS011;26000;48.304;13.626;2022-10-31T00:36:04;25.92;;;13.95;;
40290;SDS011;26000;48.304;13.626;2022-10-31T00:38:31;24.75;;;14.38;;
40290;SDS011;26000;48.304;13.626;2022-10-31T00:40:56;29.38;;;13.73;;
40290;SDS011;26000;48.304;13.626;2022-10-31T00:43:22;27.38;;;13.55;;
40290;SDS011;26000;48.304;13.626;2022-10-31T00:45:48;30.15;;;13.73;;
40290;SDS011;26000;48.304;13.626;2022-10-31T00:48:14;33.60;;;14.50;;
40290;SDS011;26000;48.304;13.626;2022-10-31T00:50:40;31.08;;;14.07;;
40290;SDS011;26000;48.304;13.626;2022-10-31T00:53:05;22.45;;;12.63;;
40290;SDS011;26000;48.304;13.626;2022-10-31T00:55:31;26.15;;;13.20;;
40290;SDS011;26000;48.304;13.626;2022-10-31T00:57:57;27.23;;;12.70;;
40290;SDS011;26000;48.304;13.626;2022-10-31T01:00:22;22.33;;;13.13;;
40290;SDS011;26000;48.304;13.626;2022-10-31T01:02:48;29.65;;;13.45;;
40290;SDS011;26000;48.304;13.626;2022-10-31T01:05:14;24.02;;;12.82;;
40290;SDS011;26000;48.304;13.626;2022-10-31T01:07:40;24.45;;;12.10;;
40290;SDS011;26000;48.304;13.626;2022-10-31T01:10:06;26.85;;;12.23;;
40290;SDS011;26000;48.304;13.626;2022-10-31T01:12:37;25.52;;;12.77;;
40290;SDS011;26000;48.304;13.626;2022-10-31T01:15:06;30.60;;;12.93;;
40290;SDS011;26000;48.304;13.626;2022-10-31T01:17:33;32.42;;;13.43;;
40290;SDS011;26000;48.304;13.626;2022-10-31T01:19:58;28.42;;;13.52;;
40290;SDS011;26000;48.304;13.626;2022-10-31T01:22:24;25.65;;;12.55;;
40290;SDS011;26000;48.304;13.626;2022-10-31T01:24:50;28.45;;;12.35;;
40290;SDS011;26000;48.304;13.626;2022-10-31T01:27:15;27.15;;;13.38;;
40290;SDS011;26000;48.304;13.626;2022-10-31T01:29:41;28.38;;;13.20;;
40290;SDS011;26000;48.304;13.626;2022-10-31T01:32:06;24.13;;;13.07;;
40290;SDS011;26000;48.304;13.626;2022-10-31T01:34:32;22.05;;;12.13;;
40290;SDS011;26000;48.304;13.626;2022-10-31T01:36:57;22.52;;;12.10;;
40290;SDS011;26000;48.304;13.626;2022-10-31T01:39:23;21.88;;;12.05;;
40290;SDS011;26000;48.304;13.626;2022-10-31T01:41:50;19.38;;;11.60;;
40290;SDS011;26000;48.304;13.626;2022-10-31T01:46:54;19.27;;;12.35;;
40290;SDS011;26000;48.304;13.626;2022-10-31T01:54:48;19.70;;;11.40;;
40290;SDS011;26000;48.304;13.626;2022-10-31T01:57:28;19.50;;;11.98;;
40290;SDS011;26000;48.304;13.626;2022-10-31T01:59:57;17.60;;;11.27;;
40290;SDS011;26000;48.304;13.626;2022-10-31T02:02:29;19.70;;;11.98;;
40290;SDS011;26000;48.304;13.626;2022-10-31T02:04:56;16.50;;;11.48;;
40290;SDS011;26000;48.304;13.626;2022-10-31T02:07:25;17.05;;;11.48;;
40290;SDS011;26000;48.304;13.626;2022-10-31T02:09:56;17.17;;;11.23;;
40290;SDS011;26000;48.304;13.626;2022-10-31T02:12:22;15.63;;;10.43;;
40290;SDS011;26000;48.304;13.626;2022-10-31T02:14:49;18.17;;;11.40;;
40290;SDS011;26000;48.304;13.626;2022-10-31T02:17:15;18.88;;;11.25;;
40290;SDS011;26000;48.304;13.626;2022-10-31T02:22:24;15.25;;;10.27;;
40290;SDS011;26000;48.304;13.626;2022-10-31T02:33:20;19.65;;;10.98;;
40290;SDS011;26000;48.304;13.626;2022-10-31T02:36:04;19.52;;;11.32;;
40290;SDS011;26000;48.304;13.626;2022-10-31T02:38:55;16.83;;;10.95;;
40290;SDS011;26000;48.304;13.626;2022-10-31T02:41:37;16.10;;;10.05;;
40290;SDS011;26000;48.304;13.626;2022-10-31T02:44:20;19.88;;;11.27;;
40290;SDS011;26000;48.304;13.626;2022-10-31T02:49:38;16.08;;;11.15;;
40290;SDS011;26000;48.304;13.626;2022-10-31T02:52:16;16.35;;;10.52;;
40290;SDS011;26000;48.304;13.626;2022-10-31T02:54:43;18.85;;;11.70;;
40290;SDS011;26000;48.304;13.626;2022-10-31T02:57:10;17.27;;;11.10;;
40290;SDS011;26000;48.304;13.626;2022-10-31T02:59:39;16.02;;;10.82;;
40290;SDS011;26000;48.304;13.626;2022-10-31T03:02:12;14.50;;;10.82;;
40290;SDS011;26000;48.304;13.626;2022-10-31T03:07:28;13.88;;;10.25;;
40290;SDS011;26000;48.304;13.626;2022-10-31T03:13:09;17.02;;;10.50;;
40290;SDS011;26000;48.304;13.626;2022-10-31T03:15:45;15.30;;;10.20;;
40290;SDS011;26000;48.304;13.626;2022-10-31T03:18:16;13.77;;;10.20;;
40290;SDS011;26000;48.304;13.626;2022-10-31T03:23:28;13.98;;;10.05;;
40290;SDS011;26000;48.304;13.626;2022-10-31T03:25:56;14.98;;;10.18;;
40290;SDS011;26000;48.304;13.626;2022-10-31T03:28:29;13.20;;;10.02;;
40290;SDS011;26000;48.304;13.626;2022-10-31T03:30:59;13.30;;;9.55;;
40290;SDS011;26000;48.304;13.626;2022-10-31T03:33:28;15.00;;;9.45;;
40290;SDS011;26000;48.304;13.626;2022-10-31T03:36:04;14.00;;;10.10;;
40290;SDS011;26000;48.304;13.626;2022-10-31T03:38:33;15.38;;;9.73;;
40290;SDS011;26000;48.304;13.626;2022-10-31T03:41:03;11.40;;;9.18;;
40290;SDS011;26000;48.304;13.626;2022-10-31T03:43:32;12.07;;;9.70;;
40290;SDS011;26000;48.304;13.626;2022-10-31T03:46:02;11.73;;;9.55;;
40290;SDS011;26000;48.304;13.626;2022-10-31T03:48:29;11.23;;;8.73;;
40290;SDS011;26000;48.304;13.626;2022-10-31T03:50:57;11.38;;;9.25;;
40290;SDS011;26000;48.304;13.626;2022-10-31T03:53:43;13.20;;;8.30;;
40290;SDS011;26000;48.304;13.626;2022-10-31T03:56:36;10.60;;;8.70;;
40290;SDS011;26000;48.304;13.626;2022-10-31T03:59:10;11.10;;;8.65;;
40290;SDS011;26000;48.304;13.626;2022-10-31T04:01:52;11.70;;;8.93;;
40290;SDS011;26000;48.304;13.626;2022-10-31T04:04:20;9.95;;;8.38;;
40290;SDS011;26000;48.304;13.626;2022-10-31T04:06:46;11.18;;;8.65;;
40290;SDS011;26000;48.304;13.626;2022-10-31T04:09:14;11.30;;;8.77;;
40290;SDS011;26000;48.304;13.626;2022-10-31T04:11:42;9.90;;;8.50;;
40290;SDS011;26000;48.304;13.626;2022-10-31T04:14:13;10.70;;;8.95;;
40290;SDS011;26000;48.304;13.626;2022-10-31T04:16:40;10.80;;;8.95;;
40290;SDS011;26000;48.304;13.626;2022-10-31T04:19:09;12.18;;;9.38;;
40290;SDS011;26000;48.304;13.626;2022-10-31T04:21:37;10.00;;;8.75;;
40290;SDS011;26000;48.304;13.626;2022-10-31T04:24:03;12.80;;;9.90;;
40290;SDS011;26000;48.304;13.626;2022-10-31T04:26:29;11.40;;;8.95;;
40290;SDS011;26000;48.304;13.626;2022-10-31T04:28:54;12.30;;;9.30;;
40290;SDS011;26000;48.304;13.626;2022-10-31T04:31:20;9.80;;;8.43;;
40290;SDS011;26000;48.304;13.626;2022-10-31T04:33:46;11.93;;;9.23;;
40290;SDS011;26000;48.304;13.626;2022-10-31T04:36:11;11.07;;;9.05;;
40290;SDS011;26000;48.304;13.626;2022-10-31T04:38:37;9.82;;;8.48;;
40290;SDS011;26000;48.304;13.626;2022-10-31T04:41:03;10.88;;;9.25;;
40290;SDS011;26000;48.304;13.626;2022-10-31T04:43:29;9.82;;;8.75;;
40290;SDS011;26000;48.304;13.626;2022-10-31T04:45:54;10.40;;;9.00;;
40290;SDS011;26000;48.304;13.626;2022-10-31T04:48:20;10.95;;;8.65;;
40290;SDS011;26000;48.304;13.626;2022-10-31T04:50:45;9.85;;;8.85;;
40290;SDS011;26000;48.304;13.626;2022-10-31T04:53:11;9.30;;;8.30;;
40290;SDS011;26000;48.304;13.626;2022-10-31T04:55:36;9.60;;;8.25;;
40290;SDS011;26000;48.304;13.626;2022-10-31T04:58:02;9.85;;;8.45;;
40290;SDS011;26000;48.304;13.626;2022-10-31T05:00:28;9.18;;;8.25;;
40290;SDS011;26000;48.304;13.626;2022-10-31T05:02:54;10.25;;;8.25;;
40290;SDS011;26000;48.304;13.626;2022-10-31T05:05:23;8.93;;;8.00;;
40290;SDS011;26000;48.304;13.626;2022-10-31T05:07:50;9.63;;;8.32;;
40290;SDS011;26000;48.304;13.626;2022-10-31T05:10:17;9.13;;;8.23;;
40290;SDS011;26000;48.304;13.626;2022-10-31T05:12:45;10.20;;;8.50;;
40290;SDS011;26000;48.304;13.626;2022-10-31T05:15:16;11.88;;;8.15;;
40290;SDS011;26000;48.304;13.626;2022-10-31T05:17:42;9.35;;;8.35;;
40290;SDS011;26000;48.304;13.626;2022-10-31T05:20:09;11.43;;;8.55;;
40290;SDS011;26000;48.304;13.626;2022-10-31T05:22:35;8.77;;;7.88;;
40290;SDS011;26000;48.304;13.626;2022-10-31T05:25:01;11.30;;;8.65;;
40290;SDS011;26000;48.304;13.626;2022-10-31T05:27:27;9.77;;;8.48;;
40290;SDS011;26000;48.304;13.626;2022-10-31T05:29:52;10.15;;;8.68;;
40290;SDS011;26000;48.304;13.626;2022-10-31T05:32:18;9.57;;;8.30;;
40290;SDS011;26000;48.304;13.626;2022-10-31T05:34:43;9.70;;;8.32;;
40290;SDS011;26000;48.304;13.626;2022-10-31T05:37:09;9.43;;;8.35;;
40290;SDS011;26000;48.304;13.626;2022-10-31T05:39:34;10.82;;;8.98;;
40290;SDS011;26000;48.304;13.626;2022-10-31T05:42:00;9.40;;;8.40;;
40290;SDS011;26000;48.304;13.626;2022-10-31T05:44:26;10.13;;;8.85;;
40290;SDS011;26000;48.304;13.626;2022-10-31T05:46:51;9.70;;;8.63;;
40290;SDS011;26000;48.304;13.626;2022-10-31T05:49:17;9.45;;;8.45;;
40290;SDS011;26000;48.304;13.626;2022-10-31T05:51:42;9.98;;;8.98;;
40290;SDS011;26000;48.304;13.626;2022-10-31T05:54:08;10.38;;;8.68;;
40290;SDS011;26000;48.304;13.626;2022-10-31T05:56:34;10.65;;;8.55;;
40290;SDS011;26000;48.304;13.626;2022-10-31T05:58:59;9.38;;;8.38;;
40290;SDS011;26000;48.304;13.626;2022-10-31T06:01:25;10.52;;;9.15;;
40290;SDS011;26000;48.304;13.626;2022-10-31T06:03:50;10.38;;;8.40;;
40290;SDS011;26000;48.304;13.626;2022-10-31T06:06:16;9.95;;;8.95;;
40290;SDS011;26000;48.304;13.626;2022-10-31T06:08:41;9.63;;;8.70;;
40290;SDS011;26000;48.304;13.626;2022-10-31T06:11:07;10.10;;;8.98;;
40290;SDS011;26000;48.304;13.626;2022-10-31T06:13:32;9.90;;;8.75;;
40290;SDS011;26000;48.304;13.626;2022-10-31T06:15:58;9.40;;;8.40;;
40290;SDS011;26000;48.304;13.626;2022-10-31T06:18:23;10.10;;;8.77;;
40290;SDS011;26000;48.304;13.626;2022-10-31T06:20:49;10.20;;;9.07;;
40290;SDS011;26000;48.304;13.626;2022-10-31T06:23:15;9.90;;;8.45;;
40290;SDS011;26000;48.304;13.626;2022-10-31T06:25:41;11.20;;;9.30;;
40290;SDS011;26000;48.304;13.626;2022-10-31T06:28:06;16.58;;;10.23;;
40290;SDS011;26000;48.304;13.626;2022-10-31T06:30:32;14.50;;;10.43;;
40290;SDS011;26000;48.304;13.626;2022-10-31T06:33:01;24.30;;;13.50;;
40290;SDS011;26000;48.304;13.626;2022-10-31T06:35:28;27.17;;;15.75;;
40290;SDS011;26000;48.304;13.626;2022-10-31T06:37:54;17.58;;;12.07;;
40290;SDS011;26000;48.304;13.626;2022-10-31T06:40:20;14.85;;;9.90;;
40290;SDS011;26000;48.304;13.626;2022-10-31T06:42:45;12.63;;;9.90;;
40290;SDS011;26000;48.304;13.626;2022-10-31T06:45:11;10.30;;;9.18;;
40290;SDS011;26000;48.304;13.626;2022-10-31T06:47:37;12.18;;;10.50;;
40290;SDS011;26000;48.304;13.626;2022-10-31T06:50:02;13.90;;;11.23;;
40290;SDS011;26000;48.304;13.626;2022-10-31T06:52:28;9.20;;;8.30;;
40290;SDS011;26000;48.304;13.626;2022-10-31T06:54:54;9.88;;;8.88;;
40290;SDS011;26000;48.304;13.626;2022-10-31T06:57:19;14.00;;;9.30;;
40290;SDS011;26000;48.304;13.626;2022-10-31T06:59:45;10.35;;;9.18;;
40290;SDS011;26000;48.304;13.626;2022-10-31T07:02:10;18.45;;;9.52;;
40290;SDS011;26000;48.304;13.626;2022-10-31T07:04:36;10.68;;;9.10;;
40290;SDS011;26000;48.304;13.626;2022-10-31T07:07:02;11.70;;;9.77;;
40290;SDS011;26000;48.304;13.626;2022-10-31T07:09:28;10.43;;;8.98;;
40290;SDS011;26000;48.304;13.626;2022-10-31T07:11:54;9.45;;;8.23;;
40290;SDS011;26000;48.304;13.626;2022-10-31T07:14:19;10.93;;;8.70;;
40290;SDS011;26000;48.304;13.626;2022-10-31T07:16:49;9.38;;;8.10;;
40290;SDS011;26000;48.304;13.626;2022-10-31T07:19:15;10.45;;;8.13;;
40290;SDS011;26000;48.304;13.626;2022-10-31T07:21:41;9.80;;;8.27;;
40290;SDS011;26000;48.304;13.626;2022-10-31T07:24:06;11.65;;;9.45;;
40290;SDS011;26000;48.304;13.626;2022-10-31T07:26:32;10.80;;;8.63;;
40290;SDS011;26000;48.304;13.626;2022-10-31T07:28:57;10.55;;;8.98;;
40290;SDS011;26000;48.304;13.626;2022-10-31T07:31:24;9.73;;;8.40;;
40290;SDS011;26000;48.304;13.626;2022-10-31T07:33:50;9.65;;;8.65;;
40290;SDS011;26000;48.304;13.626;2022-10-31T07:36:15;11.25;;;8.05;;
40290;SDS011;26000;48.304;13.626;2022-10-31T07:38:41;9.77;;;8.55;;
40290;SDS011;26000;48.304;13.626;2022-10-31T07:41:06;9.70;;;8.70;;
40290;SDS011;26000;48.304;13.626;2022-10-31T07:43:32;15.60;;;9.15;;
40290;SDS011;26000;48.304;13.626;2022-10-31T07:45:58;11.23;;;9.30;;
40290;SDS011;26000;48.304;13.626;2022-10-31T07:48:23;10.65;;;9.10;;
40290;SDS011;26000;48.304;13.626;2022-10-31T07:50:49;11.30;;;9.15;;
40290;SDS011;26000;48.304;13.626;2022-10-31T07:53:15;10.50;;;8.80;;
40290;SDS011;26000;48.304;13.626;2022-10-31T07:55:41;11.15;;;8.70;;
40290;SDS011;26000;48.304;13.626;2022-10-31T07:58:11;11.73;;;9.07;;
40290;SDS011;26000;48.304;13.626;2022-10-31T08:00:38;10.88;;;9.05;;
40290;SDS011;26000;48.304;13.626;2022-10-31T08:03:15;11.98;;;9.63;;
40290;SDS011;26000;48.304;13.626;2022-10-31T08:05:43;12.73;;;9.98;;
40290;SDS011;26000;48.304;13.626;2022-10-31T08:08:10;10.60;;;9.32;;
40290;SDS011;26000;48.304;13.626;2022-10-31T08:10:36;10.73;;;9.60;;
40290;SDS011;26000;48.304;13.626;2022-10-31T08:13:12;10.45;;;9.10;;
40290;SDS011;26000;48.304;13.626;2022-10-31T08:15:38;11.88;;;9.38;;
40290;SDS011;26000;48.304;13.626;2022-10-31T08:18:06;11.02;;;9.27;;
40290;SDS011;26000;48.304;13.626;2022-10-31T08:20:39;10.50;;;8.93;;
40290;SDS011;26000;48.304;13.626;2022-10-31T08:23:05;11.95;;;9.63;;
40290;SDS011;26000;48.304;13.626;2022-10-31T08:25:33;11.02;;;9.27;;
40290;SDS011;26000;48.304;13.626;2022-10-31T08:27:59;10.18;;;9.07;;
40290;SDS011;26000;48.304;13.626;2022-10-31T08:30:26;11.05;;;9.40;;
40290;SDS011;26000;48.304;13.626;2022-10-31T08:33:01;9.90;;;8.82;;
40290;SDS011;26000;48.304;13.626;2022-10-31T08:35:32;10.63;;;9.40;;
40290;SDS011;26000;48.304;13.626;2022-10-31T08:37:58;10.65;;;9.00;;
40290;SDS011;26000;48.304;13.626;2022-10-31T08:40:24;10.07;;;8.88;;
40290;SDS011;26000;48.304;13.626;2022-10-31T08:45:27;14.18;;;10.45;;
40290;SDS011;26000;48.304;13.626;2022-10-31T08:47:59;11.23;;;9.88;;
40290;SDS011;26000;48.304;13.626;2022-10-31T08:50:27;12.90;;;9.82;;
40290;SDS011;26000;48.304;13.626;2022-10-31T08:52:53;10.93;;;9.60;;
40290;SDS011;26000;48.304;13.626;2022-10-31T08:55:24;19.77;;;9.93;;
40290;SDS011;26000;48.304;13.626;2022-10-31T08:57:54;13.68;;;10.98;;
40290;SDS011;26000;48.304;13.626;2022-10-31T09:00:20;11.57;;;10.10;;
40290;SDS011;26000;48.304;13.626;2022-10-31T09:02:46;12.95;;;10.43;;
40290;SDS011;26000;48.304;13.626;2022-10-31T09:05:11;11.57;;;9.90;;
40290;SDS011;26000;48.304;13.626;2022-10-31T09:07:37;13.38;;;10.32;;
40290;SDS011;26000;48.304;13.626;2022-10-31T09:10:03;18.23;;;11.23;;
40290;SDS011;26000;48.304;13.626;2022-10-31T09:12:28;12.40;;;9.88;;
40290;SDS011;26000;48.304;13.626;2022-10-31T09:14:54;12.55;;;10.85;;
40290;SDS011;26000;48.304;13.626;2022-10-31T09:17:19;12.18;;;10.55;;
40290;SDS011;26000;48.304;13.626;2022-10-31T09:19:45;13.00;;;11.02;;
40290;SDS011;26000;48.304;13.626;2022-10-31T09:22:11;12.00;;;10.70;;
40290;SDS011;26000;48.304;13.626;2022-10-31T09:24:36;13.27;;;10.93;;
40290;SDS011;26000;48.304;13.626;2022-10-31T09:27:02;13.32;;;11.20;;
40290;SDS011;26000;48.304;13.626;2022-10-31T09:29:27;12.82;;;10.70;;
40290;SDS011;26000;48.304;13.626;2022-10-31T09:31:53;16.25;;;12.68;;
40290;SDS011;26000;48.304;13.626;2022-10-31T09:34:21;22.77;;;12.45;;
40290;SDS011;26000;48.304;13.626;2022-10-31T09:36:47;34.70;;;14.55;;
40290;SDS011;26000;48.304;13.626;2022-10-31T09:39:13;35.63;;;14.85;;
40290;SDS011;26000;48.304;13.626;2022-10-31T09:41:55;20.75;;;13.82;;
40290;SDS011;26000;48.304;13.626;2022-10-31T09:52:46;20.45;;;16.05;;
40290;SDS011;26000;48.304;13.626;2022-10-31T09:55:36;25.17;;;16.08;;
40290;SDS011;26000;48.304;13.626;2022-10-31T09:58:05;18.42;;;14.75;;
40290;SDS011;26000;48.304;13.626;2022-10-31T10:00:33;17.85;;;14.30;;
40290;SDS011;26000;48.304;13.626;2022-10-31T10:03:15;22.48;;;15.32;;
40290;SDS011;26000;48.304;13.626;2022-10-31T10:05:56;18.38;;;14.85;;
40290;SDS011;26000;48.304;13.626;2022-10-31T10:08:31;20.45;;;14.27;;
40290;SDS011;26000;48.304;13.626;2022-10-31T10:11:06;20.33;;;14.25;;
40290;SDS011;26000;48.304;13.626;2022-10-31T10:32:37;21.35;;;15.35;;
40290;SDS011;26000;48.304;13.626;2022-10-31T10:37:35;20.92;;;15.07;;
40290;SDS011;26000;48.304;13.626;2022-10-31T10:40:11;21.35;;;15.00;;
40290;SDS011;26000;48.304;13.626;2022-10-31T10:43:44;23.63;;;16.08;;
40290;SDS011;26000;48.304;13.626;2022-10-31T10:51:44;21.15;;;17.02;;
40290;SDS011;26000;48.304;13.626;2022-10-31T10:54:15;23.50;;;17.30;;
40290;SDS011;26000;48.304;13.626;2022-10-31T10:59:36;22.88;;;16.77;;
40290;SDS011;26000;48.304;13.626;2022-10-31T11:02:03;24.73;;;17.80;;
40290;SDS011;26000;48.304;13.626;2022-10-31T11:04:35;23.00;;;17.60;;
40290;SDS011;26000;48.304;13.626;2022-10-31T11:07:04;24.15;;;18.50;;
40290;SDS011;26000;48.304;13.626;2022-10-31T11:09:32;24.50;;;18.05;;
40290;SDS011;26000;48.304;13.626;2022-10-31T11:11:59;27.70;;;17.70;;
40290;SDS011;26000;48.304;13.626;2022-10-31T11:14:30;27.17;;;17.38;;
40290;SDS011;26000;48.304;13.626;2022-10-31T11:17:10;25.58;;;17.67;;
40290;SDS011;26000;48.304;13.626;2022-10-31T11:19:44;25.90;;;18.13;;
40290;SDS011;26000;48.304;13.626;2022-10-31T11:22:16;28.20;;;18.73;;
40290;SDS011;26000;48.304;13.626;2022-10-31T11:24:45;40.72;;;19.15;;
40290;SDS011;26000;48.304;13.626;2022-10-31T11:27:16;25.42;;;18.85;;
40290;SDS011;26000;48.304;13.626;2022-10-31T11:29:45;27.48;;;18.98;;
40290;SDS011;26000;48.304;13.626;2022-10-31T11:32:21;27.38;;;19.30;;
40290;SDS011;26000;48.304;13.626;2022-10-31T11:34:53;23.83;;;19.25;;
40290;SDS011;26000;48.304;13.626;2022-10-31T11:37:26;28.85;;;20.40;;
40290;SDS011;26000;48.304;13.626;2022-10-31T11:39:55;24.58;;;19.70;;
40290;SDS011;26000;48.304;13.626;2022-10-31T11:42:27;27.58;;;19.10;;
40290;SDS011;26000;48.304;13.626;2022-10-31T11:45:04;25.63;;;19.60;;
40290;SDS011;26000;48.304;13.626;2022-10-31T11:47:40;24.88;;;20.58;;
40290;SDS011;26000;48.304;13.626;2022-10-31T11:50:10;27.67;;;19.63;;
40290;SDS011;26000;48.304;13.626;2022-10-31T11:52:43;30.70;;;20.55;;
40290;SDS011;26000;48.304;13.626;2022-10-31T11:57:44;31.23;;;20.98;;
40290;SDS011;26000;48.304;13.626;2022-10-31T12:00:22;27.75;;;21.08;;
40290;SDS011;26000;48.304;13.626;2022-10-31T12:02:50;30.02;;;20.40;;
40290;SDS011;26000;48.304;13.626;2022-10-31T12:05:28;27.10;;;19.95;;
40290;SDS011;26000;48.304;13.626;2022-10-31T12:07:57;29.45;;;20.60;;
40290;SDS011;26000;48.304;13.626;2022-10-31T12:10:24;26.83;;;20.25;;
40290;SDS011;26000;48.304;13.626;2022-10-31T12:13:08;32.13;;;21.88;;
40290;SDS011;26000;48.304;13.626;2022-10-31T12:15:49;26.17;;;20.02;;
40290;SDS011;26000;48.304;13.626;2022-10-31T12:24:22;28.83;;;20.35;;
40290;SDS011;26000;48.304;13.626;2022-10-31T12:32:59;31.58;;;22.48;;
40290;SDS011;26000;48.304;13.626;2022-10-31T12:49:28;46.22;;;25.27;;
40290;SDS011;26000;48.304;13.626;2022-10-31T12:52:26;37.97;;;24.23;;
40290;SDS011;26000;48.304;13.626;2022-10-31T12:57:32;44.03;;;26.13;;
40290;SDS011;26000;48.304;13.626;2022-10-31T13:00:07;39.38;;;25.40;;
40290;SDS011;26000;48.304;13.626;2022-10-31T13:05:44;39.45;;;26.75;;
40290;SDS011;26000;48.304;13.626;2022-10-31T13:08:17;38.63;;;26.73;;
40290;SDS011;26000;48.304;13.626;2022-10-31T13:10:48;44.30;;;27.52;;
40290;SDS011;26000;48.304;13.626;2022-10-31T13:13:24;40.17;;;27.40;;
40290;SDS011;26000;48.304;13.626;2022-10-31T13:18:33;40.28;;;27.25;;
40290;SDS011;26000;48.304;13.626;2022-10-31T13:21:08;41.25;;;26.20;;
40290;SDS011;26000;48.304;13.626;2022-10-31T13:23:40;43.05;;;29.13;;
40290;SDS011;26000;48.304;13.626;2022-10-31T13:26:18;38.85;;;28.77;;
40290;SDS011;26000;48.304;13.626;2022-10-31T13:28:47;46.78;;;29.15;;
40290;SDS011;26000;48.304;13.626;2022-10-31T13:31:33;43.42;;;29.92;;
40290;SDS011;26000;48.304;13.626;2022-10-31T13:34:02;46.03;;;30.20;;
40290;SDS011;26000;48.304;13.626;2022-10-31T13:36:36;44.35;;;28.60;;
40290;SDS011;26000;48.304;13.626;2022-10-31T13:44:46;42.85;;;28.73;;
40290;SDS011;26000;48.304;13.626;2022-10-31T13:47:22;40.75;;;28.30;;
40290;SDS011;26000;48.304;13.626;2022-10-31T13:50:03;43.33;;;28.50;;
40290;SDS011;26000;48.304;13.626;2022-10-31T13:52:44;43.58;;;27.90;;
40290;SDS011;26000;48.304;13.626;2022-10-31T13:58:04;40.97;;;27.42;;
40290;SDS011;26000;48.304;13.626;2022-10-31T14:00:44;45.22;;;28.40;;
40290;SDS011;26000;48.304;13.626;2022-10-31T14:03:19;39.20;;;26.75;;
40290;SDS011;26000;48.304;13.626;2022-10-31T14:05:51;43.30;;;28.63;;
40290;SDS011;26000;48.304;13.626;2022-10-31T14:08:18;45.30;;;27.60;;
40290;SDS011;26000;48.304;13.626;2022-10-31T14:10:48;42.38;;;28.00;;
40290;SDS011;26000;48.304;13.626;2022-10-31T14:13:23;46.38;;;28.23;;
40290;SDS011;26000;48.304;13.626;2022-10-31T14:20:57;43.78;;;29.63;;
40290;SDS011;26000;48.304;13.626;2022-10-31T14:23:34;41.15;;;28.02;;
40290;SDS011;26000;48.304;13.626;2022-10-31T14:28:46;40.70;;;28.40;;
40290;SDS011;26000;48.304;13.626;2022-10-31T14:31:26;41.50;;;29.25;;
40290;SDS011;26000;48.304;13.626;2022-10-31T14:39:58;43.95;;;30.35;;
40290;SDS011;26000;48.304;13.626;2022-10-31T14:45:17;42.35;;;29.58;;
40290;SDS011;26000;48.304;13.626;2022-10-31T14:50:42;42.75;;;30.75;;
40290;SDS011;26000;48.304;13.626;2022-10-31T14:53:27;44.05;;;30.52;;
40290;SDS011;26000;48.304;13.626;2022-10-31T14:56:09;50.97;;;33.65;;
40290;SDS011;26000;48.304;13.626;2022-10-31T14:58:40;56.45;;;33.67;;
40290;SDS011;26000;48.304;13.626;2022-10-31T15:01:17;44.60;;;32.92;;
40290;SDS011;26000;48.304;13.626;2022-10-31T15:03:57;48.95;;;33.83;;
40290;SDS011;26000;48.304;13.626;2022-10-31T15:06:27;52.58;;;32.75;;
40290;SDS011;26000;48.304;13.626;2022-10-31T15:09:03;46.50;;;31.65;;
40290;SDS011;26000;48.304;13.626;2022-10-31T15:11:29;49.38;;;31.38;;
40290;SDS011;26000;48.304;13.626;2022-10-31T15:14:05;49.20;;;30.75;;
40290;SDS011;26000;48.304;13.626;2022-10-31T15:16:46;46.25;;;29.17;;
40290;SDS011;26000;48.304;13.626;2022-10-31T15:19:14;47.45;;;29.80;;
40290;SDS011;26000;48.304;13.626;2022-10-31T15:21:44;46.88;;;30.63;;
40290;SDS011;26000;48.304;13.626;2022-10-31T15:24:11;52.15;;;32.05;;
40290;SDS011;26000;48.304;13.626;2022-10-31T15:26:43;46.08;;;31.40;;
40290;SDS011;26000;48.304;13.626;2022-10-31T15:29:13;50.72;;;31.45;;
40290;SDS011;26000;48.304;13.626;2022-10-31T15:31:50;49.17;;;29.63;;
40290;SDS011;26000;48.304;13.626;2022-10-31T15:36:51;42.72;;;27.75;;
40290;SDS011;26000;48.304;13.626;2022-10-31T15:39:17;44.80;;;26.85;;
40290;SDS011;26000;48.304;13.626;2022-10-31T15:41:50;37.70;;;27.20;;
40290;SDS011;26000;48.304;13.626;2022-10-31T15:44:23;45.08;;;26.67;;
40290;SDS011;26000;48.304;13.626;2022-10-31T15:47:02;49.40;;;28.40;;
40290;SDS011;26000;48.304;13.626;2022-10-31T15:57:43;48.03;;;27.40;;
40290;SDS011;26000;48.304;13.626;2022-10-31T16:03:08;45.15;;;27.00;;
40290;SDS011;26000;48.304;13.626;2022-10-31T16:05:43;51.67;;;29.40;;
40290;SDS011;26000;48.304;13.626;2022-10-31T16:08:23;46.00;;;28.70;;
40290;SDS011;26000;48.304;13.626;2022-10-31T16:10:49;48.10;;;28.65;;
40290;SDS011;26000;48.304;13.626;2022-10-31T16:13:15;49.88;;;28.65;;
40290;SDS011;26000;48.304;13.626;2022-10-31T16:15:51;45.03;;;28.10;;
40290;SDS011;26000;48.304;13.626;2022-10-31T16:18:22;46.42;;;28.77;;
40290;SDS011;26000;48.304;13.626;2022-10-31T16:20:48;53.53;;;29.50;;
40290;SDS011;26000;48.304;13.626;2022-10-31T16:23:17;47.47;;;28.70;;
40290;SDS011;26000;48.304;13.626;2022-10-31T16:25:44;45.75;;;29.20;;
40290;SDS011;26000;48.304;13.626;2022-10-31T16:28:20;43.95;;;28.77;;
40290;SDS011;26000;48.304;13.626;2022-10-31T16:30:49;44.33;;;30.17;;
40290;SDS011;26000;48.304;13.626;2022-10-31T16:33:28;45.83;;;29.15;;
40290;SDS011;26000;48.304;13.626;2022-10-31T16:36:01;43.15;;;28.33;;
40290;SDS011;26000;48.304;13.626;2022-10-31T16:38:45;44.45;;;28.15;;
40290;SDS011;26000;48.304;13.626;2022-10-31T16:41:11;48.20;;;29.00;;
40290;SDS011;26000;48.304;13.626;2022-10-31T16:43:37;53.97;;;29.50;;
40290;SDS011;26000;48.304;13.626;2022-10-31T16:46:02;51.45;;;31.52;;
40290;SDS011;26000;48.304;13.626;2022-10-31T16:48:28;47.47;;;30.55;;
40290;SDS011;26000;48.304;13.626;2022-10-31T16:50:54;51.15;;;30.02;;
40290;SDS011;26000;48.304;13.626;2022-10-31T16:53:20;43.65;;;29.92;;
40290;SDS011;26000;48.304;13.626;2022-10-31T16:55:54;49.47;;;31.67;;
40290;SDS011;26000;48.304;13.626;2022-10-31T16:58:23;50.83;;;31.13;;
40290;SDS011;26000;48.304;13.626;2022-10-31T17:00:50;51.60;;;31.02;;